sensor_id;sensor_type;location;lat;lon;timestamp;P1;durP1;ratioP1;P2;durP2;ratioP2
8462;SDS011;4268;52.506;13.462;2023-06-26T00:01:50;9.93;;;9.13;;
8462;SDS011;4268;52.506;13.462;2023-06-26T00:04:16;9.70;;;8.80;;
8462;SDS011;4268;52.506;13.462;2023-06-26T00:06:41;9.60;;;8.90;;
8462;SDS011;4268;52.506;13.462;2023-06-26T00:09:07;9.17;;;8.57;;
8462;SDS011;4268;52.506;13.462;2023-06-26T00:11:33;8.77;;;8.17;;
8462;SDS011;4268;52.506;13.462;2023-06-26T00:13:59;9.73;;;8.93;;
8462;SDS011;4268;52.506;13.462;2023-06-26T00:16:25;9.80;;;9.00;;
8462;SDS011;4268;52.506;13.462;2023-06-26T00:18:52;9.77;;;8.93;;
8462;SDS011;4268;52.506;13.462;2023-06-26T00:21:17;9.50;;;8.80;;
8462;SDS011;4268;52.506;13.462;2023-06-26T00:23:44;9.77;;;8.93;;
8462;SDS011;4268;52.506;13.462;2023-06-26T00:26:09;10.03;;;9.17;;
8462;SDS011;4268;52.506;13.462;2023-06-26T00:28:36;9.97;;;9.33;;
8462;SDS011;4268;52.506;13.462;2023-06-26T00:31:01;10.47;;;9.77;;
8462;SDS011;4268;52.506;13.462;2023-06-26T00:33:27;10.90;;;10.10;;
8462;SDS011;4268;52.506;13.462;2023-06-26T00:35:52;10.03;;;9.40;;
8462;SDS011;4268;52.506;13.462;2023-06-26T00:38:17;10.23;;;9.53;;
8462;SDS011;4268;52.506;13.462;2023-06-26T00:40:43;10.17;;;9.27;;
8462;SDS011;4268;52.506;13.462;2023-06-26T00:43:09;10.17;;;9.47;;
8462;SDS011;4268;52.506;13.462;2023-06-26T00:45:35;9.53;;;8.83;;
8462;SDS011;4268;52.506;13.462;2023-06-26T00:48:01;9.97;;;9.27;;
8462;SDS011;4268;52.506;13.462;2023-06-26T00:50:27;9.63;;;8.93;;
8462;SDS011;4268;52.506;13.462;2023-06-26T00:52:55;10.00;;;9.30;;
8462;SDS011;4268;52.506;13.462;2023-06-26T00:55:25;9.53;;;8.77;;
8462;SDS011;4268;52.506;13.462;2023-06-26T00:57:51;9.90;;;9.10;;
8462;SDS011;4268;52.506;13.462;2023-06-26T01:00:18;9.40;;;8.70;;
8462;SDS011;4268;52.506;13.462;2023-06-26T01:02:43;9.97;;;9.20;;
8462;SDS011;4268;52.506;13.462;2023-06-26T01:05:09;9.97;;;9.27;;
8462;SDS011;4268;52.506;13.462;2023-06-26T01:07:38;10.50;;;9.70;;
8462;SDS011;4268;52.506;13.462;2023-06-26T01:10:04;11.23;;;10.27;;
8462;SDS011;4268;52.506;13.462;2023-06-26T01:12:33;10.70;;;10.00;;
8462;SDS011;4268;52.506;13.462;2023-06-26T01:15:03;11.40;;;10.60;;
8462;SDS011;4268;52.506;13.462;2023-06-26T01:17:30;11.27;;;10.47;;
8462;SDS011;4268;52.506;13.462;2023-06-26T01:20:00;11.63;;;10.73;;
8462;SDS011;4268;52.506;13.462;2023-06-26T01:22:34;10.97;;;10.23;;
8462;SDS011;4268;52.506;13.462;2023-06-26T01:27:54;11.03;;;10.30;;
8462;SDS011;4268;52.506;13.462;2023-06-26T01:30:25;11.83;;;11.03;;
8462;SDS011;4268;52.506;13.462;2023-06-26T01:32:51;11.97;;;11.13;;
8462;SDS011;4268;52.506;13.462;2023-06-26T01:35:16;10.93;;;10.13;;
8462;SDS011;4268;52.506;13.462;2023-06-26T01:37:42;10.87;;;9.97;;
8462;SDS011;4268;52.506;13.462;2023-06-26T01:40:08;10.93;;;10.07;;
8462;SDS011;4268;52.506;13.462;2023-06-26T01:42:34;11.03;;;10.23;;
8462;SDS011;4268;52.506;13.462;2023-06-26T01:45:07;11.97;;;11.07;;
8462;SDS011;4268;52.506;13.462;2023-06-26T01:47:38;11.57;;;10.77;;
8462;SDS011;4268;52.506;13.462;2023-06-26T01:50:12;11.40;;;10.50;;
8462;SDS011;4268;52.506;13.462;2023-06-26T01:52:53;10.83;;;10.13;;
8462;SDS011;4268;52.506;13.462;2023-06-26T01:55:33;11.63;;;10.63;;
8462;SDS011;4268;52.506;13.462;2023-06-26T01:58:04;12.00;;;11.13;;
8462;SDS011;4268;52.506;13.462;2023-06-26T02:00:31;11.20;;;10.40;;
8462;SDS011;4268;52.506;13.462;2023-06-26T02:02:57;10.93;;;10.23;;
8462;SDS011;4268;52.506;13.462;2023-06-26T02:05:23;11.33;;;10.40;;
8462;SDS011;4268;52.506;13.462;2023-06-26T02:07:49;11.53;;;10.73;;
8462;SDS011;4268;52.506;13.462;2023-06-26T02:10:14;11.63;;;10.80;;
8462;SDS011;4268;52.506;13.462;2023-06-26T02:12:40;11.00;;;10.20;;
8462;SDS011;4268;52.506;13.462;2023-06-26T02:15:06;11.67;;;10.70;;
8462;SDS011;4268;52.506;13.462;2023-06-26T02:17:32;11.60;;;10.70;;
8462;SDS011;4268;52.506;13.462;2023-06-26T02:19:57;10.97;;;10.10;;
8462;SDS011;4268;52.506;13.462;2023-06-26T02:22:23;11.67;;;10.70;;
8462;SDS011;4268;52.506;13.462;2023-06-26T02:24:48;11.00;;;10.30;;
8462;SDS011;4268;52.506;13.462;2023-06-26T02:27:14;11.10;;;10.33;;
8462;SDS011;4268;52.506;13.462;2023-06-26T02:29:40;11.67;;;10.77;;
8462;SDS011;4268;52.506;13.462;2023-06-26T02:32:06;11.20;;;10.40;;
8462;SDS011;4268;52.506;13.462;2023-06-26T02:34:32;11.07;;;10.17;;
8462;SDS011;4268;52.506;13.462;2023-06-26T02:36:58;10.83;;;10.00;;
8462;SDS011;4268;52.506;13.462;2023-06-26T02:39:25;11.07;;;10.27;;
8462;SDS011;4268;52.506;13.462;2023-06-26T02:41:51;12.53;;;11.57;;
8462;SDS011;4268;52.506;13.462;2023-06-26T02:44:16;12.63;;;11.73;;
8462;SDS011;4268;52.506;13.462;2023-06-26T02:46:42;13.40;;;12.40;;
8462;SDS011;4268;52.506;13.462;2023-06-26T02:49:08;13.33;;;12.43;;
8462;SDS011;4268;52.506;13.462;2023-06-26T02:51:34;13.97;;;12.97;;
8462;SDS011;4268;52.506;13.462;2023-06-26T02:54:00;14.07;;;13.07;;
8462;SDS011;4268;52.506;13.462;2023-06-26T02:56:28;13.63;;;12.73;;
8462;SDS011;4268;52.506;13.462;2023-06-26T02:58:54;15.50;;;14.40;;
8462;SDS011;4268;52.506;13.462;2023-06-26T03:01:20;16.17;;;14.87;;
8462;SDS011;4268;52.506;13.462;2023-06-26T03:03:46;14.77;;;13.77;;
8462;SDS011;4268;52.506;13.462;2023-06-26T03:06:12;15.57;;;14.47;;
8462;SDS011;4268;52.506;13.462;2023-06-26T03:08:37;14.73;;;13.83;;
8462;SDS011;4268;52.506;13.462;2023-06-26T03:11:06;15.70;;;14.60;;
8462;SDS011;4268;52.506;13.462;2023-06-26T03:13:33;16.40;;;15.30;;
8462;SDS011;4268;52.506;13.462;2023-06-26T03:16:00;16.27;;;15.07;;
8462;SDS011;4268;52.506;13.462;2023-06-26T03:18:25;18.50;;;17.30;;
8462;SDS011;4268;52.506;13.462;2023-06-26T03:20:51;18.67;;;17.07;;
8462;SDS011;4268;52.506;13.462;2023-06-26T03:23:19;18.33;;;16.93;;
8462;SDS011;4268;52.506;13.462;2023-06-26T03:25:45;17.47;;;16.27;;
8462;SDS011;4268;52.506;13.462;2023-06-26T03:28:11;17.57;;;16.37;;
8462;SDS011;4268;52.506;13.462;2023-06-26T03:30:36;17.57;;;16.43;;
8462;SDS011;4268;52.506;13.462;2023-06-26T03:33:02;17.37;;;16.27;;
8462;SDS011;4268;52.506;13.462;2023-06-26T03:35:28;17.30;;;16.20;;
8462;SDS011;4268;52.506;13.462;2023-06-26T03:37:54;18.20;;;17.00;;
8462;SDS011;4268;52.506;13.462;2023-06-26T03:40:20;18.17;;;16.97;;
8462;SDS011;4268;52.506;13.462;2023-06-26T03:42:45;18.80;;;17.60;;
8462;SDS011;4268;52.506;13.462;2023-06-26T03:45:11;17.97;;;16.67;;
8462;SDS011;4268;52.506;13.462;2023-06-26T03:47:36;18.30;;;17.10;;
8462;SDS011;4268;52.506;13.462;2023-06-26T03:50:02;18.97;;;17.67;;
8462;SDS011;4268;52.506;13.462;2023-06-26T03:52:28;19.90;;;18.40;;
8462;SDS011;4268;52.506;13.462;2023-06-26T03:54:55;19.73;;;18.37;;
8462;SDS011;4268;52.506;13.462;2023-06-26T03:57:25;20.60;;;19.20;;
8462;SDS011;4268;52.506;13.462;2023-06-26T03:59:51;20.37;;;18.97;;
8462;SDS011;4268;52.506;13.462;2023-06-26T04:02:17;19.97;;;18.70;;
8462;SDS011;4268;52.506;13.462;2023-06-26T04:04:43;17.63;;;16.50;;
8462;SDS011;4268;52.506;13.462;2023-06-26T04:07:09;17.17;;;16.07;;
8462;SDS011;4268;52.506;13.462;2023-06-26T04:09:35;17.23;;;16.03;;
8462;SDS011;4268;52.506;13.462;2023-06-26T04:12:00;15.97;;;14.77;;
8462;SDS011;4268;52.506;13.462;2023-06-26T04:14:27;14.57;;;13.57;;
8462;SDS011;4268;52.506;13.462;2023-06-26T04:16:52;13.73;;;12.63;;
8462;SDS011;4268;52.506;13.462;2023-06-26T04:19:18;13.83;;;12.80;;
8462;SDS011;4268;52.506;13.462;2023-06-26T04:21:44;14.27;;;13.17;;
8462;SDS011;4268;52.506;13.462;2023-06-26T04:24:10;14.47;;;13.37;;
8462;SDS011;4268;52.506;13.462;2023-06-26T04:26:35;14.23;;;13.23;;
8462;SDS011;4268;52.506;13.462;2023-06-26T04:29:02;14.20;;;13.00;;
8462;SDS011;4268;52.506;13.462;2023-06-26T04:31:28;13.50;;;12.37;;
8462;SDS011;4268;52.506;13.462;2023-06-26T04:33:53;14.20;;;13.00;;
8462;SDS011;4268;52.506;13.462;2023-06-26T04:36:20;13.87;;;12.77;;
8462;SDS011;4268;52.506;13.462;2023-06-26T04:38:45;14.40;;;13.30;;
8462;SDS011;4268;52.506;13.462;2023-06-26T04:41:13;14.53;;;13.33;;
8462;SDS011;4268;52.506;13.462;2023-06-26T04:43:38;15.03;;;13.97;;
8462;SDS011;4268;52.506;13.462;2023-06-26T04:46:04;14.17;;;13.17;;
8462;SDS011;4268;52.506;13.462;2023-06-26T04:48:30;14.27;;;13.23;;
8462;SDS011;4268;52.506;13.462;2023-06-26T04:50:56;14.10;;;13.10;;
8462;SDS011;4268;52.506;13.462;2023-06-26T04:53:23;14.70;;;13.67;;
8462;SDS011;4268;52.506;13.462;2023-06-26T04:55:50;13.97;;;12.83;;
8462;SDS011;4268;52.506;13.462;2023-06-26T04:58:16;13.30;;;12.30;;
8462;SDS011;4268;52.506;13.462;2023-06-26T05:00:42;12.17;;;11.27;;
8462;SDS011;4268;52.506;13.462;2023-06-26T05:03:09;14.30;;;13.10;;
8462;SDS011;4268;52.506;13.462;2023-06-26T05:05:38;12.43;;;11.63;;
8462;SDS011;4268;52.506;13.462;2023-06-26T05:08:13;12.80;;;11.93;;
8462;SDS011;4268;52.506;13.462;2023-06-26T05:10:42;12.90;;;11.90;;
8462;SDS011;4268;52.506;13.462;2023-06-26T05:13:08;12.37;;;11.37;;
8462;SDS011;4268;52.506;13.462;2023-06-26T05:15:33;12.13;;;11.33;;
8462;SDS011;4268;52.506;13.462;2023-06-26T05:17:59;12.43;;;11.53;;
8462;SDS011;4268;52.506;13.462;2023-06-26T05:20:24;13.00;;;12.07;;
8462;SDS011;4268;52.506;13.462;2023-06-26T05:22:49;12.67;;;11.57;;
8462;SDS011;4268;52.506;13.462;2023-06-26T05:25:15;12.47;;;11.57;;
8462;SDS011;4268;52.506;13.462;2023-06-26T05:27:43;12.63;;;11.67;;
8462;SDS011;4268;52.506;13.462;2023-06-26T05:30:08;12.20;;;11.30;;
8462;SDS011;4268;52.506;13.462;2023-06-26T05:32:35;12.03;;;11.13;;
8462;SDS011;4268;52.506;13.462;2023-06-26T05:35:02;11.70;;;10.80;;
8462;SDS011;4268;52.506;13.462;2023-06-26T05:37:29;12.20;;;11.30;;
8462;SDS011;4268;52.506;13.462;2023-06-26T05:39:56;11.70;;;10.73;;
8462;SDS011;4268;52.506;13.462;2023-06-26T05:42:22;10.57;;;9.77;;
8462;SDS011;4268;52.506;13.462;2023-06-26T05:44:47;10.70;;;9.80;;
8462;SDS011;4268;52.506;13.462;2023-06-26T05:47:13;11.33;;;10.43;;
8462;SDS011;4268;52.506;13.462;2023-06-26T05:49:38;11.03;;;10.13;;
8462;SDS011;4268;52.506;13.462;2023-06-26T05:52:04;11.53;;;10.63;;
8462;SDS011;4268;52.506;13.462;2023-06-26T05:54:30;11.20;;;10.30;;
8462;SDS011;4268;52.506;13.462;2023-06-26T05:56:56;11.10;;;10.30;;
8462;SDS011;4268;52.506;13.462;2023-06-26T05:59:25;10.93;;;10.13;;
8462;SDS011;4268;52.506;13.462;2023-06-26T06:01:51;9.70;;;9.00;;
8462;SDS011;4268;52.506;13.462;2023-06-26T06:04:17;10.20;;;9.40;;
8462;SDS011;4268;52.506;13.462;2023-06-26T06:06:43;9.80;;;9.02;;
8462;SDS011;4268;52.506;13.462;2023-06-26T06:09:08;9.90;;;9.10;;
8462;SDS011;4268;52.506;13.462;2023-06-26T06:11:34;8.75;;;8.05;;
8462;SDS011;4268;52.506;13.462;2023-06-26T06:13:59;9.10;;;8.20;;
8462;SDS011;4268;52.506;13.462;2023-06-26T06:16:25;8.00;;;7.50;;
8462;SDS011;4268;52.506;13.462;2023-06-26T06:18:51;8.40;;;7.80;;
8462;SDS011;4268;52.506;13.462;2023-06-26T06:21:16;8.02;;;7.32;;
8462;SDS011;4268;52.506;13.462;2023-06-26T06:23:42;7.70;;;7.10;;
8462;SDS011;4268;52.506;13.462;2023-06-26T06:26:07;7.70;;;7.00;;
8462;SDS011;4268;52.506;13.462;2023-06-26T06:28:33;7.65;;;7.05;;
8462;SDS011;4268;52.506;13.462;2023-06-26T06:30:58;8.13;;;7.60;;
8462;SDS011;4268;52.506;13.462;2023-06-26T06:33:24;7.65;;;7.15;;
8462;SDS011;4268;52.506;13.462;2023-06-26T06:35:49;7.15;;;6.57;;
8462;SDS011;4268;52.506;13.462;2023-06-26T06:38:15;7.45;;;6.85;;
8462;SDS011;4268;52.506;13.462;2023-06-26T06:40:40;7.30;;;6.65;;
8462;SDS011;4268;52.506;13.462;2023-06-26T06:43:06;7.10;;;6.60;;
8462;SDS011;4268;52.506;13.462;2023-06-26T06:45:31;10.30;;;6.82;;
8462;SDS011;4268;52.506;13.462;2023-06-26T06:47:56;6.75;;;6.20;;
8462;SDS011;4268;52.506;13.462;2023-06-26T06:50:22;7.03;;;6.43;;
8462;SDS011;4268;52.506;13.462;2023-06-26T06:52:47;7.00;;;6.38;;
8462;SDS011;4268;52.506;13.462;2023-06-26T06:55:13;6.60;;;6.10;;
8462;SDS011;4268;52.506;13.462;2023-06-26T06:57:39;7.10;;;6.50;;
8462;SDS011;4268;52.506;13.462;2023-06-26T07:00:05;6.82;;;6.07;;
8462;SDS011;4268;52.506;13.462;2023-06-26T07:02:39;6.38;;;5.93;;
8462;SDS011;4268;52.506;13.462;2023-06-26T07:05:06;6.05;;;5.47;;
8462;SDS011;4268;52.506;13.462;2023-06-26T07:07:32;6.20;;;5.80;;
8462;SDS011;4268;52.506;13.462;2023-06-26T07:09:59;6.40;;;5.90;;
8462;SDS011;4268;52.506;13.462;2023-06-26T07:12:26;6.43;;;5.97;;
8462;SDS011;4268;52.506;13.462;2023-06-26T07:14:52;7.00;;;6.57;;
8462;SDS011;4268;52.506;13.462;2023-06-26T07:17:18;6.88;;;6.30;;
8462;SDS011;4268;52.506;13.462;2023-06-26T07:19:44;6.30;;;5.90;;
8462;SDS011;4268;52.506;13.462;2023-06-26T07:22:10;5.82;;;5.43;;
8462;SDS011;4268;52.506;13.462;2023-06-26T07:24:36;6.20;;;5.80;;
8462;SDS011;4268;52.506;13.462;2023-06-26T07:27:01;6.55;;;6.05;;
8462;SDS011;4268;52.506;13.462;2023-06-26T07:29:27;6.20;;;5.80;;
8462;SDS011;4268;52.506;13.462;2023-06-26T07:31:52;6.13;;;5.63;;
8462;SDS011;4268;52.506;13.462;2023-06-26T07:34:18;6.43;;;5.93;;
8462;SDS011;4268;52.506;13.462;2023-06-26T07:36:43;8.13;;;7.53;;
8462;SDS011;4268;52.506;13.462;2023-06-26T07:39:09;9.13;;;8.52;;
8462;SDS011;4268;52.506;13.462;2023-06-26T07:41:34;9.20;;;8.70;;
8462;SDS011;4268;52.506;13.462;2023-06-26T07:43:59;8.20;;;7.70;;
8462;SDS011;4268;52.506;13.462;2023-06-26T07:46:25;6.97;;;6.57;;
8462;SDS011;4268;52.506;13.462;2023-06-26T07:48:51;6.55;;;6.15;;
8462;SDS011;4268;52.506;13.462;2023-06-26T07:51:16;6.68;;;6.28;;
8462;SDS011;4268;52.506;13.462;2023-06-26T07:53:41;6.68;;;6.18;;
8462;SDS011;4268;52.506;13.462;2023-06-26T07:56:07;6.38;;;5.88;;
8462;SDS011;4268;52.506;13.462;2023-06-26T07:58:32;6.70;;;6.10;;
8462;SDS011;4268;52.506;13.462;2023-06-26T08:00:58;6.22;;;5.72;;
8462;SDS011;4268;52.506;13.462;2023-06-26T08:03:23;6.03;;;5.47;;
8462;SDS011;4268;52.506;13.462;2023-06-26T08:05:49;5.60;;;5.30;;
8462;SDS011;4268;52.506;13.462;2023-06-26T08:08:14;6.50;;;5.28;;
8462;SDS011;4268;52.506;13.462;2023-06-26T08:10:40;5.50;;;5.10;;
8462;SDS011;4268;52.506;13.462;2023-06-26T08:13:05;5.80;;;5.25;;
8462;SDS011;4268;52.506;13.462;2023-06-26T08:15:31;5.38;;;5.00;;
8462;SDS011;4268;52.506;13.462;2023-06-26T08:17:57;6.05;;;5.50;;
8462;SDS011;4268;52.506;13.462;2023-06-26T08:20:22;5.82;;;5.43;;
8462;SDS011;4268;52.506;13.462;2023-06-26T08:22:48;5.97;;;5.57;;
8462;SDS011;4268;52.506;13.462;2023-06-26T08:25:16;6.32;;;5.82;;
8462;SDS011;4268;52.506;13.462;2023-06-26T08:27:41;6.07;;;5.70;;
8462;SDS011;4268;52.506;13.462;2023-06-26T08:30:07;6.50;;;6.00;;
8462;SDS011;4268;52.506;13.462;2023-06-26T08:32:33;6.05;;;5.70;;
8462;SDS011;4268;52.506;13.462;2023-06-26T08:34:59;6.72;;;6.13;;
8462;SDS011;4268;52.506;13.462;2023-06-26T08:37:24;6.60;;;6.20;;
8462;SDS011;4268;52.506;13.462;2023-06-26T08:39:50;6.72;;;6.32;;
8462;SDS011;4268;52.506;13.462;2023-06-26T08:42:15;6.32;;;5.93;;
8462;SDS011;4268;52.506;13.462;2023-06-26T08:44:41;6.18;;;5.88;;
8462;SDS011;4268;52.506;13.462;2023-06-26T08:47:06;6.53;;;6.03;;
8462;SDS011;4268;52.506;13.462;2023-06-26T08:49:34;5.32;;;5.03;;
8462;SDS011;4268;52.506;13.462;2023-06-26T08:52:17;4.95;;;4.63;;
8462;SDS011;4268;52.506;13.462;2023-06-26T08:54:49;4.75;;;4.32;;
8462;SDS011;4268;52.506;13.462;2023-06-26T08:57:20;4.20;;;4.00;;
8462;SDS011;4268;52.506;13.462;2023-06-26T08:59:48;4.40;;;4.00;;
8462;SDS011;4268;52.506;13.462;2023-06-26T09:02:14;4.10;;;3.90;;
8462;SDS011;4268;52.506;13.462;2023-06-26T09:04:40;4.20;;;3.90;;
8462;SDS011;4268;52.506;13.462;2023-06-26T09:07:06;4.50;;;4.20;;
8462;SDS011;4268;52.506;13.462;2023-06-26T09:09:32;4.65;;;4.45;;
8462;SDS011;4268;52.506;13.462;2023-06-26T09:11:57;4.65;;;4.35;;
8462;SDS011;4268;52.506;13.462;2023-06-26T09:14:23;4.50;;;4.30;;
8462;SDS011;4268;52.506;13.462;2023-06-26T09:16:49;4.70;;;4.43;;
8462;SDS011;4268;52.506;13.462;2023-06-26T09:19:15;4.68;;;4.40;;
8462;SDS011;4268;52.506;13.462;2023-06-26T09:21:41;4.80;;;4.50;;
8462;SDS011;4268;52.506;13.462;2023-06-26T09:24:07;5.28;;;4.95;;
8462;SDS011;4268;52.506;13.462;2023-06-26T09:26:37;4.93;;;4.63;;
8462;SDS011;4268;52.506;13.462;2023-06-26T09:29:04;4.55;;;4.30;;
8462;SDS011;4268;52.506;13.462;2023-06-26T09:31:30;4.70;;;4.50;;
8462;SDS011;4268;52.506;13.462;2023-06-26T09:33:59;4.85;;;4.65;;
8462;SDS011;4268;52.506;13.462;2023-06-26T09:36:27;4.80;;;4.40;;
8462;SDS011;4268;52.506;13.462;2023-06-26T09:38:54;4.93;;;4.60;;
8462;SDS011;4268;52.506;13.462;2023-06-26T09:41:19;4.60;;;4.30;;
8462;SDS011;4268;52.506;13.462;2023-06-26T09:43:46;5.07;;;4.55;;
8462;SDS011;4268;52.506;13.462;2023-06-26T09:46:30;5.10;;;4.80;;
8462;SDS011;4268;52.506;13.462;2023-06-26T09:49:03;6.15;;;5.65;;
8462;SDS011;4268;52.506;13.462;2023-06-26T09:51:31;5.20;;;4.90;;
8462;SDS011;4268;52.506;13.462;2023-06-26T09:53:57;5.10;;;4.80;;
8462;SDS011;4268;52.506;13.462;2023-06-26T09:56:23;5.20;;;4.90;;
8462;SDS011;4268;52.506;13.462;2023-06-26T09:58:49;5.47;;;5.18;;
8462;SDS011;4268;52.506;13.462;2023-06-26T10:01:15;5.05;;;4.75;;
8462;SDS011;4268;52.506;13.462;2023-06-26T10:03:43;5.10;;;4.80;;
8462;SDS011;4268;52.506;13.462;2023-06-26T10:06:09;5.78;;;5.38;;
8462;SDS011;4268;52.506;13.462;2023-06-26T10:08:36;6.00;;;5.40;;
8462;SDS011;4268;52.506;13.462;2023-06-26T10:11:04;5.40;;;5.10;;
8462;SDS011;4268;52.506;13.462;2023-06-26T10:13:34;5.50;;;5.20;;
8462;SDS011;4268;52.506;13.462;2023-06-26T10:16:05;4.90;;;4.60;;
8462;SDS011;4268;52.506;13.462;2023-06-26T10:18:33;5.38;;;5.07;;
8462;SDS011;4268;52.506;13.462;2023-06-26T10:21:04;5.15;;;4.85;;
8462;SDS011;4268;52.506;13.462;2023-06-26T10:23:31;5.50;;;5.10;;
8462;SDS011;4268;52.506;13.462;2023-06-26T10:25:59;5.80;;;5.30;;
8462;SDS011;4268;52.506;13.462;2023-06-26T10:28:26;5.78;;;5.25;;
8462;SDS011;4268;52.506;13.462;2023-06-26T10:30:54;5.30;;;4.90;;
8462;SDS011;4268;52.506;13.462;2023-06-26T10:33:21;5.65;;;5.25;;
8462;SDS011;4268;52.506;13.462;2023-06-26T10:35:47;4.97;;;4.68;;
8462;SDS011;4268;52.506;13.462;2023-06-26T10:38:13;5.28;;;4.97;;
8462;SDS011;4268;52.506;13.462;2023-06-26T10:40:40;5.25;;;4.95;;
8462;SDS011;4268;52.506;13.462;2023-06-26T10:43:07;5.20;;;4.90;;
8462;SDS011;4268;52.506;13.462;2023-06-26T10:45:34;5.38;;;4.88;;
8462;SDS011;4268;52.506;13.462;2023-06-26T10:48:00;5.30;;;5.00;;
8462;SDS011;4268;52.506;13.462;2023-06-26T10:53:13;5.28;;;4.97;;
8462;SDS011;4268;52.506;13.462;2023-06-26T10:55:47;5.53;;;5.15;;
8462;SDS011;4268;52.506;13.462;2023-06-26T11:03:36;5.43;;;4.97;;
8462;SDS011;4268;52.506;13.462;2023-06-26T11:06:12;5.30;;;5.00;;
8462;SDS011;4268;52.506;13.462;2023-06-26T11:08:44;5.45;;;5.05;;
8462;SDS011;4268;52.506;13.462;2023-06-26T11:11:13;5.20;;;4.82;;
8462;SDS011;4268;52.506;13.462;2023-06-26T11:13:42;4.78;;;4.50;;
8462;SDS011;4268;52.506;13.462;2023-06-26T11:16:09;4.88;;;4.57;;
8462;SDS011;4268;52.506;13.462;2023-06-26T11:18:37;4.45;;;4.10;;
8462;SDS011;4268;52.506;13.462;2023-06-26T11:21:09;5.00;;;4.70;;
8462;SDS011;4268;52.506;13.462;2023-06-26T11:23:38;4.63;;;4.32;;
8462;SDS011;4268;52.506;13.462;2023-06-26T11:26:17;5.22;;;4.93;;
8462;SDS011;4268;52.506;13.462;2023-06-26T11:28:50;5.38;;;5.07;;
8462;SDS011;4268;52.506;13.462;2023-06-26T11:31:23;5.22;;;4.93;;
8462;SDS011;4268;52.506;13.462;2023-06-26T11:33:53;5.00;;;4.70;;
8462;SDS011;4268;52.506;13.462;2023-06-26T11:36:21;6.88;;;5.22;;
8462;SDS011;4268;52.506;13.462;2023-06-26T11:38:53;5.13;;;4.82;;
8462;SDS011;4268;52.506;13.462;2023-06-26T11:41:20;5.22;;;4.93;;
8462;SDS011;4268;52.506;13.462;2023-06-26T11:43:46;5.32;;;5.03;;
8462;SDS011;4268;52.506;13.462;2023-06-26T11:46:12;4.90;;;4.60;;
8462;SDS011;4268;52.506;13.462;2023-06-26T11:48:40;5.15;;;4.85;;
8462;SDS011;4268;52.506;13.462;2023-06-26T11:51:06;5.57;;;5.10;;
8462;SDS011;4268;52.506;13.462;2023-06-26T11:53:32;5.05;;;4.75;;
8462;SDS011;4268;52.506;13.462;2023-06-26T11:56:12;5.30;;;5.00;;
8462;SDS011;4268;52.506;13.462;2023-06-26T11:58:55;5.07;;;4.68;;
8462;SDS011;4268;52.506;13.462;2023-06-26T12:01:44;5.00;;;4.60;;
8462;SDS011;4268;52.506;13.462;2023-06-26T12:04:10;5.60;;;4.72;;
8462;SDS011;4268;52.506;13.462;2023-06-26T12:06:40;4.70;;;4.40;;
8462;SDS011;4268;52.506;13.462;2023-06-26T12:09:10;4.53;;;4.28;;
8462;SDS011;4268;52.506;13.462;2023-06-26T12:11:37;4.88;;;4.57;;
8462;SDS011;4268;52.506;13.462;2023-06-26T12:14:04;4.90;;;4.60;;
8462;SDS011;4268;52.506;13.462;2023-06-26T12:16:31;5.22;;;4.82;;
8462;SDS011;4268;52.506;13.462;2023-06-26T12:18:59;4.60;;;4.30;;
8462;SDS011;4268;52.506;13.462;2023-06-26T12:24:07;5.00;;;4.70;;
8462;SDS011;4268;52.506;13.462;2023-06-26T12:26:35;5.07;;;4.68;;
8462;SDS011;4268;52.506;13.462;2023-06-26T12:29:07;4.53;;;4.13;;
8462;SDS011;4268;52.506;13.462;2023-06-26T12:31:39;5.18;;;4.78;;
8462;SDS011;4268;52.506;13.462;2023-06-26T12:34:10;4.70;;;4.40;;
8462;SDS011;4268;52.506;13.462;2023-06-26T12:36:42;5.43;;;5.00;;
8462;SDS011;4268;52.506;13.462;2023-06-26T12:39:15;5.20;;;4.90;;
8462;SDS011;4268;52.506;13.462;2023-06-26T12:41:51;5.57;;;5.18;;
8462;SDS011;4268;52.506;13.462;2023-06-26T12:44:28;5.53;;;5.13;;
8462;SDS011;4268;52.506;13.462;2023-06-26T12:46:55;5.35;;;4.95;;
8462;SDS011;4268;52.506;13.462;2023-06-26T12:49:33;5.60;;;5.20;;
8462;SDS011;4268;52.506;13.462;2023-06-26T12:51:59;4.93;;;4.63;;
8462;SDS011;4268;52.506;13.462;2023-06-26T12:54:27;5.40;;;5.10;;
8462;SDS011;4268;52.506;13.462;2023-06-26T12:56:53;5.38;;;5.00;;
8462;SDS011;4268;52.506;13.462;2023-06-26T12:59:19;5.43;;;5.13;;
8462;SDS011;4268;52.506;13.462;2023-06-26T13:01:47;5.57;;;5.18;;
8462;SDS011;4268;52.506;13.462;2023-06-26T13:04:13;5.30;;;5.00;;
8462;SDS011;4268;52.506;13.462;2023-06-26T13:06:39;5.40;;;5.03;;
8462;SDS011;4268;52.506;13.462;2023-06-26T13:09:04;5.10;;;4.80;;
8462;SDS011;4268;52.506;13.462;2023-06-26T13:11:30;5.45;;;5.07;;
8462;SDS011;4268;52.506;13.462;2023-06-26T13:13:56;5.18;;;4.78;;
8462;SDS011;4268;52.506;13.462;2023-06-26T13:16:22;5.30;;;4.80;;
8462;SDS011;4268;52.506;13.462;2023-06-26T13:18:47;5.68;;;5.28;;
8462;SDS011;4268;52.506;13.462;2023-06-26T13:21:13;5.57;;;5.10;;
8462;SDS011;4268;52.506;13.462;2023-06-26T13:23:39;5.20;;;4.80;;
8462;SDS011;4268;52.506;13.462;2023-06-26T13:26:05;5.32;;;4.93;;
8462;SDS011;4268;52.506;13.462;2023-06-26T13:28:31;5.70;;;5.30;;
8462;SDS011;4268;52.506;13.462;2023-06-26T13:30:56;7.88;;;5.30;;
8462;SDS011;4268;52.506;13.462;2023-06-26T13:33:22;5.60;;;5.20;;
8462;SDS011;4268;52.506;13.462;2023-06-26T13:35:50;7.72;;;5.57;;
8462;SDS011;4268;52.506;13.462;2023-06-26T13:38:17;5.38;;;5.00;;
8462;SDS011;4268;52.506;13.462;2023-06-26T13:40:43;5.80;;;5.32;;
8462;SDS011;4268;52.506;13.462;2023-06-26T13:43:09;5.57;;;5.07;;
8462;SDS011;4268;52.506;13.462;2023-06-26T13:45:34;6.32;;;5.82;;
8462;SDS011;4268;52.506;13.462;2023-06-26T13:48:00;6.40;;;6.00;;
8462;SDS011;4268;52.506;13.462;2023-06-26T13:50:25;5.88;;;5.57;;
8462;SDS011;4268;52.506;13.462;2023-06-26T13:52:51;5.95;;;5.65;;
8462;SDS011;4268;52.506;13.462;2023-06-26T13:55:17;6.45;;;6.05;;
8462;SDS011;4268;52.506;13.462;2023-06-26T13:57:42;5.90;;;5.50;;
8462;SDS011;4268;52.506;13.462;2023-06-26T14:00:08;5.57;;;5.28;;
8462;SDS011;4268;52.506;13.462;2023-06-26T14:02:36;6.32;;;5.93;;
8462;SDS011;4268;52.506;13.462;2023-06-26T14:05:02;6.13;;;5.75;;
8462;SDS011;4268;52.506;13.462;2023-06-26T14:07:29;6.10;;;5.80;;
8462;SDS011;4268;52.506;13.462;2023-06-26T14:09:54;6.13;;;5.72;;
8462;SDS011;4268;52.506;13.462;2023-06-26T14:12:20;6.38;;;5.97;;
8462;SDS011;4268;52.506;13.462;2023-06-26T14:14:45;5.85;;;5.50;;
8462;SDS011;4268;52.506;13.462;2023-06-26T14:17:11;5.90;;;5.50;;
8462;SDS011;4268;52.506;13.462;2023-06-26T14:19:40;6.35;;;5.97;;
8462;SDS011;4268;52.506;13.462;2023-06-26T14:22:06;6.55;;;6.05;;
8462;SDS011;4268;52.506;13.462;2023-06-26T14:24:32;6.30;;;5.80;;
8462;SDS011;4268;52.506;13.462;2023-06-26T14:26:58;5.70;;;5.30;;
8462;SDS011;4268;52.506;13.462;2023-06-26T14:29:24;15.65;;;6.03;;
8462;SDS011;4268;52.506;13.462;2023-06-26T14:31:51;13.85;;;5.30;;
8462;SDS011;4268;52.506;13.462;2023-06-26T14:34:17;8.45;;;6.53;;
8462;SDS011;4268;52.506;13.462;2023-06-26T14:36:43;10.50;;;6.88;;
8462;SDS011;4268;52.506;13.462;2023-06-26T14:39:11;5.40;;;5.00;;
8462;SDS011;4268;52.506;13.462;2023-06-26T14:41:38;5.00;;;4.50;;
8462;SDS011;4268;52.506;13.462;2023-06-26T14:44:18;5.20;;;4.80;;
8462;SDS011;4268;52.506;13.462;2023-06-26T14:46:50;6.33;;;5.83;;
8462;SDS011;4268;52.506;13.462;2023-06-26T14:49:16;7.43;;;6.83;;
8462;SDS011;4268;52.506;13.462;2023-06-26T14:51:41;7.97;;;7.40;;
8462;SDS011;4268;52.506;13.462;2023-06-26T14:54:07;6.63;;;6.23;;
8462;SDS011;4268;52.506;13.462;2023-06-26T14:56:33;6.97;;;6.57;;
8462;SDS011;4268;52.506;13.462;2023-06-26T14:58:59;6.00;;;5.57;;
8462;SDS011;4268;52.506;13.462;2023-06-26T15:01:24;7.93;;;7.43;;
8462;SDS011;4268;52.506;13.462;2023-06-26T15:03:50;8.07;;;7.47;;
8462;SDS011;4268;52.506;13.462;2023-06-26T15:06:15;6.83;;;6.10;;